.
WxDataArchive / Data Records for 2009-11-22
2009-11-21 November 2009 2009-11-23

Data Records for Sunday, 22 November 2009

Time	Temp	Chill	HIndex	Humid	Dewpt	 Wind 	HiWind	WindDir	Rain 	Barom 
-----	----	-----	------	-----	-----	------	------	-------	-----	----- 
00:00	33.7	33.7	33.7	94	32.2	0	0	---	0.00	30.240 
00:05	33.8	33.8	33.8	94	32.3	0	0	---	0.00	30.240 
00:10	33.8	33.8	33.8	94	32.3	0	0	---	0.00	30.240 
00:15	33.8	33.8	33.8	94	32.3	0	0	---	0.00	30.240 
00:20	33.7	33.7	33.7	94	32.2	0	0	---	0.00	30.240 
00:25	33.5	33.5	33.5	94	32.0	0	0	---	0.00	30.240 
00:30	33.2	33.2	33.2	94	31.7	0	0	---	0.00	30.241 
00:35	33.2	33.2	33.2	94	31.7	0	0	---	0.00	30.241 
00:40	33.1	33.1	33.1	94	31.6	0	0	---	0.00	30.241 
00:45	33.1	33.1	33.1	94	31.6	0	0	---	0.00	30.240 
00:50	33.1	33.1	33.1	94	31.6	0	0	---	0.00	30.240 
00:55	33.1	33.1	33.1	94	31.6	0	0	---	0.00	30.240 
01:00	33.1	33.1	33.1	94	31.6	0	0	---	0.00	30.239 
01:05	32.9	32.9	32.9	94	31.4	0	0	---	0.00	30.239 
01:10	32.8	32.8	32.8	94	31.3	0	0	---	0.00	30.239 
01:15	32.7	32.7	32.7	94	31.2	0	0	---	0.00	30.240 
01:20	32.5	32.5	32.5	94	31.0	0	0	---	0.00	30.240 
01:25	32.5	32.5	32.5	94	31.0	0	0	---	0.00	30.240 
01:30	32.5	32.5	32.5	94	31.0	0	0	---	0.00	30.240 
01:35	32.5	32.5	32.5	94	31.0	0	0	---	0.00	30.240 
01:40	32.5	32.5	32.5	94	31.0	0	0	---	0.00	30.240 
01:45	32.5	32.5	32.5	94	31.0	0	0	---	0.00	30.240 
01:50	32.4	32.4	32.4	94	30.9	0	0	---	0.00	30.240 
01:55	32.4	32.4	32.4	94	30.9	0	0	---	0.00	30.240 
02:00	32.4	32.4	32.4	95	31.1	0	0	---	0.00	30.241 
02:05	32.4	32.4	32.4	95	31.1	0	0	---	0.00	30.241 
02:10	32.5	32.5	32.5	95	31.2	0	0	---	0.00	30.241 
02:15	32.5	32.5	32.5	95	31.2	0	0	---	0.00	30.243 
02:20	32.4	32.4	32.4	95	31.1	0	0	---	0.00	30.243 
02:25	32.4	32.4	32.4	95	31.1	0	0	---	0.00	30.243 
02:30	32.4	32.4	32.4	95	31.1	0	0	---	0.00	30.244 
02:35	32.4	32.4	32.4	95	31.1	0	0	---	0.00	30.244 
02:40	32.2	32.2	32.2	95	30.9	0	0	---	0.00	30.244 
02:45	32.4	32.4	32.4	95	31.1	0	0	---	0.00	30.253 
02:50	32.5	32.5	32.5	95	31.2	0	0	---	0.00	30.253 
02:55	32.7	32.7	32.7	95	31.4	0	0	---	0.00	30.253 
03:00	32.7	32.7	32.7	95	31.4	0	0	---	0.00	30.256 
03:05	32.5	32.5	32.5	95	31.2	0	0	---	0.00	30.256 
03:10	32.4	32.4	32.4	95	31.1	0	0	---	0.00	30.256 
03:15	32.4	32.4	32.4	95	31.1	0	0	---	0.00	30.257 
03:20	32.4	32.4	32.4	95	31.1	0	0	---	0.00	30.257 
03:25	32.4	32.4	32.4	95	31.1	0	0	---	0.00	30.257 
03:30	32.4	32.4	32.4	95	31.1	0	0	---	0.00	30.257 
03:35	32.4	32.4	32.4	95	31.1	0	0	---	0.00	30.257 
03:40	32.2	32.2	32.2	95	30.9	0	0	---	0.00	30.257 
03:45	32.1	32.1	32.1	95	30.8	0	0	---	0.00	30.258 
03:50	32.1	32.1	32.1	95	30.8	0	0	---	0.00	30.258 
03:55	32.1	32.1	32.1	95	30.8	0	0	---	0.00	30.258 
04:00	31.9	31.9	31.9	95	30.6	0	0	---	0.00	30.258 
04:05	32.1	32.1	32.1	95	30.8	0	0	---	0.00	30.258 
04:10	32.2	32.2	32.2	95	30.9	0	0	---	0.00	30.258 
04:15	32.2	32.2	32.2	95	30.9	0	0	---	0.00	30.261 
04:20	32.1	32.1	32.1	95	30.8	0	0	---	0.00	30.261 
04:25	31.9	31.9	31.9	95	30.6	0	0	---	0.00	30.261 
04:30	31.9	31.9	31.9	95	30.6	0	0	---	0.00	30.261 
04:35	31.9	31.9	31.9	95	30.6	0	0	---	0.00	30.261 
04:40	31.8	31.8	31.8	95	30.5	0	0	---	0.00	30.261 
04:45	31.5	31.5	31.5	95	30.2	0	0	---	0.00	30.260 
04:50	31.5	31.5	31.5	95	30.2	0	0	---	0.00	30.260 
04:55	31.3	31.3	31.3	95	30.0	0	0	---	0.00	30.260 
05:00	31.5	31.5	31.5	95	30.2	0	0	---	0.00	30.265 
05:05	31.6	31.6	31.6	95	30.3	0	0	---	0.00	30.265 
05:10	31.6	31.6	31.6	95	30.3	0	0	---	0.00	30.265 
05:15	31.6	31.6	31.6	95	30.3	0	0	---	0.00	30.270 
05:20	31.8	31.8	31.8	95	30.5	0	0	---	0.00	30.270 
05:25	32.1	32.1	32.1	96	31.1	0	0	---	0.00	30.270 
05:30	32.1	32.1	32.1	95	30.8	0	0	---	0.00	30.277 
05:35	31.9	31.9	31.9	95	30.6	0	0	---	0.00	30.277 
05:40	31.9	31.9	31.9	95	30.6	0	0	---	0.00	30.277 
05:45	31.9	31.9	31.9	95	30.6	0	0	---	0.00	30.280 
05:50	31.9	31.9	31.9	95	30.6	0	0	---	0.00	30.280 
05:55	32.1	32.1	32.1	95	30.8	0	0	---	0.00	30.280 
06:00	32.1	32.1	32.1	95	30.8	0	0	---	0.00	30.280 
06:05	32.2	32.2	32.2	96	31.2	0	0	---	0.00	30.280 
06:10	32.1	32.1	32.1	95	30.8	0	0	---	0.00	30.280 
06:15	31.9	31.9	31.9	95	30.6	0	0	---	0.00	30.283 
06:20	31.9	31.9	31.9	95	30.6	0	0	---	0.00	30.283 
06:25	31.9	31.9	31.9	95	30.6	0	0	---	0.00	30.283 
06:30	31.8	31.8	31.8	95	30.5	0	0	---	0.00	30.283 
06:35	31.8	31.8	31.8	95	30.5	0	0	---	0.00	30.283 
06:40	31.8	31.8	31.8	96	30.8	0	0	---	0.00	30.283 
06:45	31.8	31.8	31.8	95	30.5	0	0	---	0.00	30.284 
06:50	31.6	31.6	31.6	95	30.3	0	0	---	0.00	30.284 
06:55	31.6	31.6	31.6	95	30.3	0	0	---	0.00	30.284 
07:00	31.5	31.5	31.5	95	30.2	0	0	---	0.00	30.285 
07:05	31.3	31.3	31.3	95	30.0	0	0	---	0.00	30.285 
07:10	31.3	31.3	31.3	95	30.0	0	0	---	0.00	30.285 
07:15	31.3	31.3	31.3	96	30.3	0	0	---	0.00	30.293 
07:20	31.5	31.5	31.5	96	30.5	0	0	---	0.00	30.293 
07:25	31.5	31.5	31.5	96	30.5	0	0	---	0.00	30.293 
07:30	31.5	31.5	31.5	96	30.5	0	0	---	0.00	30.291 
07:35	31.5	31.5	31.5	96	30.5	0	0	---	0.00	30.291 
07:40	31.6	31.6	31.6	96	30.6	0	0	---	0.00	30.291 
07:45	32.2	32.2	32.2	96	31.2	0	0	---	0.00	30.292 
07:50	33.1	33.1	33.1	96	32.1	0	1	90	0.00	30.292 
07:55	33.8	33.8	33.8	96	32.8	0	1	90	0.00	30.292 
08:00	34.3	34.3	34.3	96	33.3	0	1	90	0.00	30.295 
08:05	34.6	34.6	34.6	96	33.6	0	2	90	0.00	30.295 
08:10	34.9	34.9	34.9	96	33.9	0	2	90	0.00	30.295 
08:15	35.3	35.3	35.3	96	34.3	0	1	90	0.00	30.299 
08:20	35.6	35.6	35.6	96	34.6	0	1	90	0.00	30.299 
08:25	35.9	35.9	35.9	96	34.9	0	2	90	0.00	30.299 
08:30	35.9	35.9	35.9	96	34.9	0	1	90	0.00	30.302 
08:35	36.0	36.0	36.0	96	35.0	0	2	90	0.00	30.302 
08:40	36.0	36.0	36.0	96	35.0	0	1	90	0.00	30.302 
08:45	36.3	36.3	36.3	96	35.3	1	2	90	0.00	30.304 
08:50	36.6	36.6	36.6	96	35.6	0	1	90	0.00	30.304 
08:55	36.8	36.8	36.8	96	35.8	0	2	90	0.00	30.304 
09:00	37.0	37.0	37.0	96	36.0	0	1	90	0.00	30.301 
09:05	37.3	37.3	37.3	96	36.3	0	1	90	0.00	30.301 
09:10	37.9	37.9	37.9	96	36.9	0	0	---	0.00	30.301 
09:15	38.6	38.6	38.6	97	37.8	1	3	90	0.00	30.306 
09:20	39.1	39.1	39.1	96	38.1	1	3	90	0.00	30.306 
09:25	39.3	39.3	39.3	96	38.3	1	3	90	0.00	30.306 
09:30	39.6	39.6	39.6	96	38.6	2	4	90	0.00	30.306 
09:35	39.6	39.6	39.6	96	38.6	1	3	90	0.00	30.306 
09:40	39.8	39.8	39.8	96	38.8	1	2	90	0.00	30.306 
09:45	39.8	39.8	39.8	96	38.8	2	4	90	0.00	30.304 
09:50	40.1	40.1	40.1	96	39.1	1	3	90	0.00	30.304 
09:55	40.5	40.5	40.5	96	39.5	1	4	90	0.00	30.304 
10:00	40.8	40.8	40.8	96	39.7	2	5	90	0.00	30.298 
10:05	41.2	41.2	41.2	96	40.1	1	4	68	0.00	30.298 
10:10	41.3	41.3	41.3	96	40.2	1	4	90	0.00	30.298 
10:15	41.6	41.6	41.6	95	40.3	1	2	90	0.00	30.299 
10:20	42.1	42.1	42.1	95	40.8	1	3	90	0.00	30.299 
10:25	42.3	42.3	42.3	95	41.0	1	3	90	0.00	30.299 
10:30	42.9	42.9	42.9	94	41.3	1	3	90	0.00	30.300 
10:35	43.2	43.2	43.2	94	41.6	1	2	90	0.00	30.300 
10:40	43.8	43.8	43.8	93	41.9	1	4	90	0.00	30.300 
10:45	44.3	44.3	44.3	93	42.4	1	4	90	0.00	30.296 
10:50	44.6	44.6	44.6	92	42.4	1	5	90	0.00	30.296 
10:55	45.1	45.1	45.1	91	42.6	1	3	90	0.00	30.296 
11:00	45.4	45.4	45.4	90	42.6	1	3	112	0.00	30.292 
11:05	45.8	45.8	45.8	88	42.5	1	4	112	0.00	30.292 
11:10	46.2	46.2	46.2	87	42.5	2	3	112	0.00	30.292 
11:15	46.5	46.5	46.5	86	42.5	2	5	112	0.00	30.284 
11:20	47.0	47.0	47.0	85	42.7	2	5	90	0.00	30.284 
11:25	47.4	47.4	47.4	85	43.1	1	4	112	0.00	30.284 
11:30	47.7	47.7	47.7	84	43.1	1	3	68	0.00	30.278 
11:35	48.2	48.2	48.2	83	43.3	1	4	112	0.00	30.278 
11:40	48.6	48.6	48.6	82	43.4	2	6	90	0.00	30.278 
11:45	48.9	48.9	48.9	81	43.3	2	6	112	0.00	30.273 
11:50	49.2	49.2	49.2	80	43.3	1	5	135	0.00	30.273 
11:55	49.9	49.9	49.9	79	43.6	2	5	112	0.00	30.273 
12:00	50.4	50.4	50.4	77	43.5	2	5	112	0.00	30.257 
12:05	50.7	50.7	50.7	76	43.4	3	4	112	0.00	30.257 
12:10	50.7	50.7	50.7	75	43.1	2	6	112	0.00	30.257 
12:15	51.0	51.0	51.0	75	43.4	2	5	112	0.00	30.254 
12:20	51.1	51.1	51.1	74	43.1	2	5	112	0.00	30.254 
12:25	51.1	51.1	51.1	74	43.1	2	6	90	0.00	30.254 
12:30	51.4	51.4	51.4	75	43.7	3	6	112	0.00	30.247 
12:35	51.6	51.6	51.6	74	43.6	1	5	112	0.00	30.247 
12:40	51.9	51.9	51.9	73	43.5	2	5	112	0.00	30.247 
12:45	52.2	52.2	52.2	72	43.4	3	7	90	0.00	30.244 
12:50	52.3	52.3	52.3	73	43.9	2	5	112	0.00	30.244 
12:55	52.3	52.3	52.3	73	43.9	1	4	135	0.00	30.244 
13:00	52.5	52.5	52.5	71	43.4	3	7	112	0.00	30.240 
13:05	52.8	52.8	52.8	71	43.7	2	5	112	0.00	30.240 
13:10	53.3	53.3	53.3	71	44.1	2	5	90	0.00	30.240 
13:15	53.6	53.6	53.6	70	44.1	3	5	112	0.00	30.228 
13:20	53.6	53.6	53.6	69	43.7	3	7	112	0.00	30.228 
13:25	53.3	53.3	53.3	69	43.4	3	7	90	0.00	30.228 
13:30	53.1	53.1	53.1	70	43.6	3	7	90	0.00	30.225 
13:35	53.1	53.1	53.1	70	43.6	2	6	112	0.00	30.225 
13:40	53.1	53.1	53.1	69	43.2	3	6	112	0.00	30.225 
13:45	52.9	52.9	52.9	69	43.0	3	6	90	0.00	30.224 
13:50	53.1	53.1	53.1	69	43.2	2	5	90	0.00	30.224 
13:55	53.3	53.3	53.3	69	43.4	2	5	68	0.00	30.224 
14:00	53.5	53.5	53.5	68	43.2	3	10	112	0.00	30.221 
14:05	53.5	53.5	53.5	67	42.8	3	7	112	0.00	30.221 
14:10	53.5	53.5	53.5	68	43.2	2	5	90	0.00	30.221 
14:15	53.8	53.8	53.8	68	43.5	2	6	112	0.00	30.209 
14:20	53.8	53.8	53.8	69	43.9	3	7	112	0.00	30.209 
14:25	53.6	53.6	53.6	69	43.7	5	10	112	0.00	30.209 
14:30	53.6	53.6	53.6	70	44.1	2	5	112	0.00	30.210 
14:35	53.8	53.8	53.8	69	43.9	3	9	112	0.00	30.210 
14:40	53.9	53.9	53.9	69	44.0	2	5	112	0.00	30.210 
14:45	53.9	53.9	53.9	67	43.2	5	10	112	0.00	30.208 
14:50	53.8	53.8	53.8	69	43.9	4	10	112	0.00	30.208 
14:55	53.8	53.8	53.8	69	43.9	4	9	90	0.00	30.208 
15:00	53.9	53.9	53.9	69	44.0	3	5	112	0.00	30.210 
15:05	53.9	53.9	53.9	69	44.0	3	6	90	0.00	30.210 
15:10	53.9	53.9	53.9	69	44.0	1	4	90	0.00	30.210 
15:15	53.9	53.9	53.9	69	44.0	3	7	112	0.00	30.210 
15:20	53.9	53.9	53.9	69	44.0	2	5	90	0.00	30.210 
15:25	53.8	53.8	53.8	69	43.9	3	10	90	0.00	30.210 
15:30	53.5	53.5	53.5	70	44.0	1	5	112	0.00	30.208 
15:35	53.3	53.3	53.3	71	44.1	2	4	112	0.00	30.208 
15:40	53.3	53.3	53.3	70	43.8	2	5	112	0.00	30.208 
15:45	53.3	53.3	53.3	69	43.4	3	6	90	0.00	30.210 
15:50	53.5	53.5	53.5	70	44.0	2	5	112	0.00	30.210 
15:55	53.6	53.6	53.6	70	44.1	2	5	90	0.00	30.210 
16:00	53.5	53.5	53.5	70	44.0	2	5	90	0.00	30.206 
16:05	53.5	53.5	53.5	71	44.3	2	7	45	0.00	30.206 
16:10	53.3	53.3	53.3	71	44.1	1	4	22	0.00	30.206 
16:15	53.3	53.3	53.3	71	44.1	2	4	90	0.00	30.203 
16:20	53.2	53.2	53.2	71	44.0	1	4	90	0.00	30.203 
16:25	53.2	53.2	53.2	72	44.4	2	5	90	0.00	30.203 
16:30	53.1	53.1	53.1	72	44.3	2	5	112	0.00	30.196 
16:35	52.9	52.9	52.9	72	44.1	1	5	112	0.00	30.196 
16:40	52.6	52.6	52.6	72	43.8	1	6	90	0.00	30.196 
16:45	52.3	52.3	52.3	73	43.9	1	3	135	0.00	30.197 
16:50	52.0	52.0	52.0	73	43.6	1	4	112	0.00	30.197 
16:55	51.7	51.7	51.7	74	43.7	1	3	112	0.00	30.197 
17:00	51.4	51.4	51.4	74	43.4	0	3	90	0.00	30.201 
17:05	51.1	51.1	51.1	75	43.5	1	3	90	0.00	30.201 
17:10	51.0	51.0	51.0	76	43.7	0	3	135	0.00	30.201 
17:15	50.7	50.7	50.7	76	43.4	1	3	135	0.00	30.204 
17:20	50.4	50.4	50.4	77	43.5	1	2	135	0.00	30.204 
17:25	50.1	50.1	50.1	78	43.5	0	2	135	0.00	30.204 
17:30	49.9	49.9	49.9	78	43.3	2	5	22	0.00	30.199 
17:35	49.8	49.8	49.8	78	43.2	1	3	112	0.00	30.199 
17:40	49.5	49.5	49.5	79	43.3	1	3	112	0.00	30.199 
17:45	49.2	49.2	49.2	80	43.3	0	2	135	0.00	30.202 
17:50	48.9	48.9	48.9	81	43.3	1	4	112	0.00	30.202 
17:55	48.8	48.8	48.8	81	43.2	1	4	112	0.00	30.202 
18:00	48.6	48.6	48.6	81	43.0	2	5	112	0.00	30.209 
18:05	48.5	48.5	48.5	81	42.9	1	4	112	0.00	30.209 
18:10	48.3	48.3	48.3	82	43.1	1	5	112	0.00	30.209 
18:15	48.2	48.2	48.2	83	43.3	2	4	112	0.00	30.207 
18:20	48.0	48.0	48.0	84	43.4	2	7	90	0.00	30.207 
18:25	47.9	47.9	47.9	84	43.3	2	6	90	0.00	30.207 
18:30	47.7	47.7	47.7	84	43.1	1	6	22	0.00	30.215 
18:35	47.4	47.4	47.4	84	42.8	2	7	112	0.00	30.215 
18:40	47.1	47.1	47.1	85	42.8	3	6	112	0.00	30.215 
18:45	46.8	46.8	46.8	85	42.5	3	7	112	0.00	30.220 
18:50	46.5	46.5	46.5	86	42.5	3	9	112	0.00	30.220 
18:55	46.4	46.4	46.4	86	42.4	2	7	90	0.00	30.220 
19:00	46.1	46.1	46.1	86	42.1	2	7	112	0.00	30.228 
19:05	45.8	45.8	45.8	87	42.2	2	11	112	0.00	30.228 
19:10	45.7	45.7	45.7	87	42.1	3	11	112	0.00	30.228 
19:15	45.5	45.5	45.5	87	41.9	3	6	112	0.00	30.226 
19:20	45.2	45.2	45.2	87	41.6	3	8	90	0.00	30.226 
19:25	45.1	45.1	45.1	88	41.8	2	7	90	0.00	30.226 
19:30	44.8	44.8	44.8	88	41.5	2	9	112	0.00	30.219 
19:35	44.6	44.6	44.6	88	41.3	2	9	112	0.00	30.219 
19:40	44.5	44.5	44.5	88	41.2	3	7	90	0.00	30.219 
19:45	44.3	42.3	44.3	89	41.3	4	10	90	0.00	30.220 
19:50	44.2	44.2	44.2	89	41.2	3	7	90	0.00	30.220 
19:55	44.1	44.1	44.1	89	41.1	3	8	112	0.00	30.220 
20:00	43.9	43.9	43.9	89	40.9	3	9	112	0.00	30.216 
20:05	43.9	43.9	43.9	90	41.2	3	7	112	0.00	30.216 
20:10	44.1	44.1	44.1	90	41.4	3	8	90	0.00	30.216 
20:15	44.1	42.1	44.1	90	41.4	4	9	90	0.00	30.217 
20:20	44.2	44.2	44.2	90	41.5	3	11	112	0.00	30.217 
20:25	44.2	44.2	44.2	90	41.5	3	11	90	0.00	30.217 
20:30	44.5	42.5	44.5	91	42.0	4	11	112	0.00	30.215 
20:35	44.6	42.6	44.6	90	41.9	4	10	112	0.00	30.215 
20:40	44.6	41.9	44.6	91	42.1	5	11	112	0.00	30.215 
20:45	44.8	42.9	44.8	91	42.3	4	12	112	0.00	30.214 
20:50	44.9	43.0	44.9	91	42.4	4	11	112	0.00	30.214 
20:55	44.9	42.2	44.9	91	42.4	5	13	90	0.00	30.214 
21:00	45.1	45.1	45.1	91	42.6	3	7	90	0.00	30.213 
21:05	45.1	43.2	45.1	91	42.6	4	12	90	0.00	30.213 
21:10	45.1	42.5	45.1	91	42.6	5	11	112	0.00	30.213 
21:15	45.1	43.2	45.1	91	42.6	4	10	90	0.00	30.210 
21:20	45.1	45.1	45.1	91	42.6	3	9	90	0.00	30.210 
21:25	45.1	42.5	45.1	91	42.6	5	11	112	0.00	30.210 
21:30	45.2	43.3	45.2	91	42.7	4	13	90	0.00	30.210 
21:35	45.2	42.6	45.2	91	42.7	5	10	90	0.00	30.210 
21:40	45.2	42.6	45.2	90	42.4	5	10	112	0.00	30.210 
21:45	45.2	42.6	45.2	91	42.7	5	9	112	0.00	30.207 
21:50	45.2	45.2	45.2	90	42.4	3	9	112	0.00	30.207 
21:55	45.2	43.3	45.2	90	42.4	4	11	112	0.00	30.207 
22:00	45.4	42.8	45.4	90	42.6	5	11	90	0.00	30.207 
22:05	45.4	43.6	45.4	90	42.6	4	12	90	0.00	30.207 
22:10	45.4	42.8	45.4	90	42.6	5	13	90	0.00	30.207 
22:15	45.5	42.9	45.5	90	42.7	5	12	90	0.00	30.205 
22:20	45.5	43.7	45.5	90	42.7	4	13	90	0.00	30.205 
22:25	45.7	43.2	45.7	90	42.9	5	12	112	0.00	30.205 
22:30	45.7	43.9	45.7	90	42.9	4	9	112	0.00	30.203 
22:35	45.7	43.9	45.7	90	42.9	4	11	90	0.00	30.203 
22:40	45.7	45.7	45.7	90	42.9	2	5	90	0.00	30.203 
22:45	45.4	45.4	45.4	90	42.6	2	4	90	0.00	30.200 
22:50	45.2	45.2	45.2	90	42.4	3	7	90	0.00	30.200 
22:55	45.1	45.1	45.1	90	42.3	3	6	112	0.00	30.200 
23:00	44.9	44.9	44.9	90	42.1	1	3	90	0.00	30.202 
23:05	44.6	44.6	44.6	90	41.9	1	4	90	0.00	30.202 
23:10	44.3	44.3	44.3	91	41.8	1	3	90	0.00	30.202 
23:15	44.2	44.2	44.2	91	41.7	0	3	112	0.00	30.198 
23:20	44.1	44.1	44.1	91	41.6	0	1	112	0.00	30.198 
23:25	43.9	43.9	43.9	91	41.4	0	3	112	0.00	30.198 
23:30	43.8	43.8	43.8	91	41.3	0	2	45	0.00	30.192 
23:35	43.6	43.6	43.6	92	41.4	1	3	45	0.00	30.192 
23:40	43.3	43.3	43.3	92	41.1	0	2	45	0.00	30.192 
23:45	43.2	43.2	43.2	92	41.0	0	1	45	0.00	30.186 
23:50	43.1	43.1	43.1	92	40.9	0	2	45	0.00	30.186 
23:55	42.9	42.9	42.9	92	40.7	0	3	112	0.00	30.186 

CoCoRaHS
IN-AL-39
A2 Web Hosting
Creative Commons License
GoDaddy
search engine by freefind advanced

loaded 2018-11-15 05:35:36 • last modified 2010-11-18 10:43:29
Privacy PolicyDisclaimer
• wx.awcolley.com is powered by PmWiki v.2002016 •
• all content (unless otherwise noted) © 2018 A W Colley